sensor_id;sensor_type;location;lat;lon;timestamp;temperature;humidity
16441;DHT22;8330;-33.858;151.184;2022-09-06T00:00:28;16.70;99.90
16441;DHT22;8330;-33.858;151.184;2022-09-06T00:02:59;16.70;99.90
16441;DHT22;8330;-33.858;151.184;2022-09-06T00:05:31;16.70;99.90
16441;DHT22;8330;-33.858;151.184;2022-09-06T00:08:03;16.70;99.90
16441;DHT22;8330;-33.858;151.184;2022-09-06T00:10:40;16.60;99.90
16441;DHT22;8330;-33.858;151.184;2022-09-06T00:13:11;16.60;99.90
16441;DHT22;8330;-33.858;151.184;2022-09-06T00:15:43;16.60;99.90
16441;DHT22;8330;-33.858;151.184;2022-09-06T00:18:14;16.70;99.90
16441;DHT22;8330;-33.858;151.184;2022-09-06T00:20:46;16.60;99.90
16441;DHT22;8330;-33.858;151.184;2022-09-06T00:23:19;16.50;99.90
16441;DHT22;8330;-33.858;151.184;2022-09-06T00:25:59;16.60;99.90
16441;DHT22;8330;-33.858;151.184;2022-09-06T00:28:31;16.60;99.90
16441;DHT22;8330;-33.858;151.184;2022-09-06T00:31:09;16.60;99.90
16441;DHT22;8330;-33.858;151.184;2022-09-06T00:33:40;16.60;99.90
16441;DHT22;8330;-33.858;151.184;2022-09-06T00:36:11;16.60;99.90
16441;DHT22;8330;-33.858;151.184;2022-09-06T00:38:43;16.70;99.90
16441;DHT22;8330;-33.858;151.184;2022-09-06T00:41:17;16.70;99.90
16441;DHT22;8330;-33.858;151.184;2022-09-06T00:43:49;16.70;99.90
16441;DHT22;8330;-33.858;151.184;2022-09-06T00:46:26;16.80;99.90
16441;DHT22;8330;-33.858;151.184;2022-09-06T00:48:59;16.70;99.90
16441;DHT22;8330;-33.858;151.184;2022-09-06T00:51:32;16.70;99.90
16441;DHT22;8330;-33.858;151.184;2022-09-06T00:54:04;16.70;99.90
16441;DHT22;8330;-33.858;151.184;2022-09-06T00:56:39;16.70;99.90
16441;DHT22;8330;-33.858;151.184;2022-09-06T00:59:12;16.60;99.90
16441;DHT22;8330;-33.858;151.184;2022-09-06T01:01:44;16.60;99.90
16441;DHT22;8330;-33.858;151.184;2022-09-06T01:04:15;16.60;99.90
16441;DHT22;8330;-33.858;151.184;2022-09-06T01:06:56;16.60;99.90
16441;DHT22;8330;-33.858;151.184;2022-09-06T01:09:46;16.60;99.90
16441;DHT22;8330;-33.858;151.184;2022-09-06T01:12:40;16.60;99.90
16441;DHT22;8330;-33.858;151.184;2022-09-06T01:15:23;16.60;99.90
16441;DHT22;8330;-33.858;151.184;2022-09-06T01:18:06;16.70;99.90
16441;DHT22;8330;-33.858;151.184;2022-09-06T01:21:20;16.70;99.90
16441;DHT22;8330;-33.858;151.184;2022-09-06T01:27:28;16.90;99.90
16441;DHT22;8330;-33.858;151.184;2022-09-06T01:30:04;17.00;99.90
16441;DHT22;8330;-33.858;151.184;2022-09-06T01:32:40;17.10;99.90
16441;DHT22;8330;-33.858;151.184;2022-09-06T01:35:26;17.10;99.90
16441;DHT22;8330;-33.858;151.184;2022-09-06T01:37:58;17.20;99.90
16441;DHT22;8330;-33.858;151.184;2022-09-06T01:40:30;17.40;99.90
16441;DHT22;8330;-33.858;151.184;2022-09-06T01:43:08;17.40;99.90
16441;DHT22;8330;-33.858;151.184;2022-09-06T01:45:52;17.50;99.90
16441;DHT22;8330;-33.858;151.184;2022-09-06T01:48:35;17.60;99.90
16441;DHT22;8330;-33.858;151.184;2022-09-06T01:51:15;17.60;99.90
16441;DHT22;8330;-33.858;151.184;2022-09-06T01:54:02;17.80;99.90
16441;DHT22;8330;-33.858;151.184;2022-09-06T01:56:41;18.00;99.90
16441;DHT22;8330;-33.858;151.184;2022-09-06T01:59:54;18.20;99.90
16441;DHT22;8330;-33.858;151.184;2022-09-06T02:02:40;18.30;99.90
16441;DHT22;8330;-33.858;151.184;2022-09-06T02:05:22;18.40;99.90
16441;DHT22;8330;-33.858;151.184;2022-09-06T02:07:57;18.40;99.90
16441;DHT22;8330;-33.858;151.184;2022-09-06T02:10:35;18.30;99.90
16441;DHT22;8330;-33.858;151.184;2022-09-06T02:13:10;18.40;99.90
16441;DHT22;8330;-33.858;151.184;2022-09-06T02:15:51;18.40;99.90
16441;DHT22;8330;-33.858;151.184;2022-09-06T02:18:29;18.50;99.90
16441;DHT22;8330;-33.858;151.184;2022-09-06T02:21:19;18.70;99.90
16441;DHT22;8330;-33.858;151.184;2022-09-06T02:23:54;18.90;99.90
16441;DHT22;8330;-33.858;151.184;2022-09-06T02:26:33;18.90;99.90
16441;DHT22;8330;-33.858;151.184;2022-09-06T02:29:07;18.90;99.90
16441;DHT22;8330;-33.858;151.184;2022-09-06T02:31:46;18.80;99.90
16441;DHT22;8330;-33.858;151.184;2022-09-06T02:34:20;18.80;99.90
16441;DHT22;8330;-33.858;151.184;2022-09-06T02:36:52;18.80;99.90
16441;DHT22;8330;-33.858;151.184;2022-09-06T02:39:23;18.90;99.90
16441;DHT22;8330;-33.858;151.184;2022-09-06T02:41:55;18.90;99.90
16441;DHT22;8330;-33.858;151.184;2022-09-06T02:44:27;18.80;99.90
16441;DHT22;8330;-33.858;151.184;2022-09-06T02:47:02;18.70;99.90
16441;DHT22;8330;-33.858;151.184;2022-09-06T02:49:36;18.60;99.90
16441;DHT22;8330;-33.858;151.184;2022-09-06T02:52:08;18.50;99.90
16441;DHT22;8330;-33.858;151.184;2022-09-06T02:54:39;18.60;99.90
16441;DHT22;8330;-33.858;151.184;2022-09-06T02:57:11;18.50;99.90
16441;DHT22;8330;-33.858;151.184;2022-09-06T02:59:45;18.60;99.90
16441;DHT22;8330;-33.858;151.184;2022-09-06T03:02:20;18.60;99.90
16441;DHT22;8330;-33.858;151.184;2022-09-06T03:04:53;18.60;99.90
16441;DHT22;8330;-33.858;151.184;2022-09-06T03:07:25;18.80;99.90
16441;DHT22;8330;-33.858;151.184;2022-09-06T03:09:59;18.90;99.90
16441;DHT22;8330;-33.858;151.184;2022-09-06T03:12:32;19.10;99.90
16441;DHT22;8330;-33.858;151.184;2022-09-06T03:15:04;19.30;99.90
16441;DHT22;8330;-33.858;151.184;2022-09-06T03:17:36;19.30;99.90
16441;DHT22;8330;-33.858;151.184;2022-09-06T03:20:10;19.40;99.90
16441;DHT22;8330;-33.858;151.184;2022-09-06T03:22:45;19.50;99.90
16441;DHT22;8330;-33.858;151.184;2022-09-06T03:25:17;19.50;99.90
16441;DHT22;8330;-33.858;151.184;2022-09-06T03:27:50;19.50;99.90
16441;DHT22;8330;-33.858;151.184;2022-09-06T03:30:21;19.50;99.90
16441;DHT22;8330;-33.858;151.184;2022-09-06T03:32:57;19.50;99.90
16441;DHT22;8330;-33.858;151.184;2022-09-06T03:35:29;19.50;99.90
16441;DHT22;8330;-33.858;151.184;2022-09-06T03:38:02;19.60;99.90
16441;DHT22;8330;-33.858;151.184;2022-09-06T03:40:35;19.60;99.90
16441;DHT22;8330;-33.858;151.184;2022-09-06T03:43:07;19.80;99.90
16441;DHT22;8330;-33.858;151.184;2022-09-06T03:45:39;19.80;99.90
16441;DHT22;8330;-33.858;151.184;2022-09-06T03:48:11;19.80;99.90
16441;DHT22;8330;-33.858;151.184;2022-09-06T03:50:44;19.80;99.90
16441;DHT22;8330;-33.858;151.184;2022-09-06T03:53:15;19.90;99.90
16441;DHT22;8330;-33.858;151.184;2022-09-06T03:55:48;19.80;99.90
16441;DHT22;8330;-33.858;151.184;2022-09-06T03:58:20;19.80;99.90
16441;DHT22;8330;-33.858;151.184;2022-09-06T04:01:03;19.70;99.90
16441;DHT22;8330;-33.858;151.184;2022-09-06T04:03:40;19.60;99.90
16441;DHT22;8330;-33.858;151.184;2022-09-06T04:06:12;19.60;99.90
16441;DHT22;8330;-33.858;151.184;2022-09-06T04:08:44;19.60;99.90
16441;DHT22;8330;-33.858;151.184;2022-09-06T04:11:17;19.40;99.90
16441;DHT22;8330;-33.858;151.184;2022-09-06T04:13:49;19.40;99.90
16441;DHT22;8330;-33.858;151.184;2022-09-06T04:16:21;19.30;99.90
16441;DHT22;8330;-33.858;151.184;2022-09-06T04:18:58;19.40;99.90
16441;DHT22;8330;-33.858;151.184;2022-09-06T04:21:31;19.30;99.90
16441;DHT22;8330;-33.858;151.184;2022-09-06T04:24:01;19.30;99.90
16441;DHT22;8330;-33.858;151.184;2022-09-06T04:26:35;19.20;99.90
16441;DHT22;8330;-33.858;151.184;2022-09-06T04:29:09;19.10;99.90
16441;DHT22;8330;-33.858;151.184;2022-09-06T04:31:40;19.00;99.90
16441;DHT22;8330;-33.858;151.184;2022-09-06T04:34:13;19.00;99.90
16441;DHT22;8330;-33.858;151.184;2022-09-06T04:36:46;18.80;99.90
16441;DHT22;8330;-33.858;151.184;2022-09-06T04:39:18;18.80;99.90
16441;DHT22;8330;-33.858;151.184;2022-09-06T04:41:49;18.80;99.90
16441;DHT22;8330;-33.858;151.184;2022-09-06T04:44:19;18.70;99.90
16441;DHT22;8330;-33.858;151.184;2022-09-06T04:46:51;18.80;99.90
16441;DHT22;8330;-33.858;151.184;2022-09-06T04:49:35;18.70;99.90
16441;DHT22;8330;-33.858;151.184;2022-09-06T04:52:08;18.50;99.90
16441;DHT22;8330;-33.858;151.184;2022-09-06T04:54:41;18.40;99.90
16441;DHT22;8330;-33.858;151.184;2022-09-06T04:57:14;18.20;99.90
16441;DHT22;8330;-33.858;151.184;2022-09-06T04:59:46;18.20;99.90
16441;DHT22;8330;-33.858;151.184;2022-09-06T05:02:19;18.30;99.90
16441;DHT22;8330;-33.858;151.184;2022-09-06T05:05:06;18.30;99.90
16441;DHT22;8330;-33.858;151.184;2022-09-06T05:07:38;18.30;99.90
16441;DHT22;8330;-33.858;151.184;2022-09-06T05:10:12;18.40;99.90
16441;DHT22;8330;-33.858;151.184;2022-09-06T05:12:48;18.30;99.90
16441;DHT22;8330;-33.858;151.184;2022-09-06T05:15:23;18.40;99.90
16441;DHT22;8330;-33.858;151.184;2022-09-06T05:18:02;18.40;99.90
16441;DHT22;8330;-33.858;151.184;2022-09-06T05:20:37;18.50;99.90
16441;DHT22;8330;-33.858;151.184;2022-09-06T05:23:09;18.50;99.90
16441;DHT22;8330;-33.858;151.184;2022-09-06T05:25:45;18.50;99.90
16441;DHT22;8330;-33.858;151.184;2022-09-06T05:28:20;18.50;99.90
16441;DHT22;8330;-33.858;151.184;2022-09-06T05:30:51;18.30;99.90
16441;DHT22;8330;-33.858;151.184;2022-09-06T05:33:23;18.20;99.90
16441;DHT22;8330;-33.858;151.184;2022-09-06T05:36:04;18.20;99.90
16441;DHT22;8330;-33.858;151.184;2022-09-06T05:38:40;18.30;99.90
16441;DHT22;8330;-33.858;151.184;2022-09-06T05:41:12;18.40;99.90
16441;DHT22;8330;-33.858;151.184;2022-09-06T05:43:48;18.60;99.90
16441;DHT22;8330;-33.858;151.184;2022-09-06T05:46:20;18.70;99.90
16441;DHT22;8330;-33.858;151.184;2022-09-06T05:48:57;18.80;99.90
16441;DHT22;8330;-33.858;151.184;2022-09-06T05:51:37;18.90;99.90
16441;DHT22;8330;-33.858;151.184;2022-09-06T05:54:10;18.80;99.90
16441;DHT22;8330;-33.858;151.184;2022-09-06T05:56:44;18.80;99.90
16441;DHT22;8330;-33.858;151.184;2022-09-06T05:59:26;18.80;99.90
16441;DHT22;8330;-33.858;151.184;2022-09-06T06:01:57;18.70;99.90
16441;DHT22;8330;-33.858;151.184;2022-09-06T06:04:30;18.60;99.90
16441;DHT22;8330;-33.858;151.184;2022-09-06T06:07:02;18.60;99.90
16441;DHT22;8330;-33.858;151.184;2022-09-06T06:09:33;18.50;99.90
16441;DHT22;8330;-33.858;151.184;2022-09-06T06:12:05;18.40;99.90
16441;DHT22;8330;-33.858;151.184;2022-09-06T06:14:36;18.40;99.90
16441;DHT22;8330;-33.858;151.184;2022-09-06T06:17:10;18.50;99.90
16441;DHT22;8330;-33.858;151.184;2022-09-06T06:19:43;18.50;99.90
16441;DHT22;8330;-33.858;151.184;2022-09-06T06:22:19;18.50;99.90
16441;DHT22;8330;-33.858;151.184;2022-09-06T06:24:51;18.50;99.90
16441;DHT22;8330;-33.858;151.184;2022-09-06T06:27:21;18.40;99.90
16441;DHT22;8330;-33.858;151.184;2022-09-06T06:29:52;18.30;99.90
16441;DHT22;8330;-33.858;151.184;2022-09-06T06:32:24;18.30;99.90
16441;DHT22;8330;-33.858;151.184;2022-09-06T06:35:00;18.30;99.90
16441;DHT22;8330;-33.858;151.184;2022-09-06T06:37:37;18.10;99.90
16441;DHT22;8330;-33.858;151.184;2022-09-06T06:40:12;18.10;99.90
16441;DHT22;8330;-33.858;151.184;2022-09-06T06:42:44;18.00;99.90
16441;DHT22;8330;-33.858;151.184;2022-09-06T06:45:16;17.90;99.90
16441;DHT22;8330;-33.858;151.184;2022-09-06T06:47:50;17.80;99.90
16441;DHT22;8330;-33.858;151.184;2022-09-06T06:50:22;17.80;99.90
16441;DHT22;8330;-33.858;151.184;2022-09-06T06:52:57;17.70;99.90
16441;DHT22;8330;-33.858;151.184;2022-09-06T06:55:31;17.70;99.90
16441;DHT22;8330;-33.858;151.184;2022-09-06T06:58:02;17.60;99.90
16441;DHT22;8330;-33.858;151.184;2022-09-06T07:00:34;17.50;99.90
16441;DHT22;8330;-33.858;151.184;2022-09-06T07:03:08;17.50;99.90
16441;DHT22;8330;-33.858;151.184;2022-09-06T07:05:40;17.40;99.90
16441;DHT22;8330;-33.858;151.184;2022-09-06T07:08:16;17.30;99.90
16441;DHT22;8330;-33.858;151.184;2022-09-06T07:10:52;17.20;99.90
16441;DHT22;8330;-33.858;151.184;2022-09-06T07:13:25;17.00;99.90
16441;DHT22;8330;-33.858;151.184;2022-09-06T07:16:07;16.80;99.90
16441;DHT22;8330;-33.858;151.184;2022-09-06T07:18:41;16.60;99.90
16441;DHT22;8330;-33.858;151.184;2022-09-06T07:21:16;16.60;99.90
16441;DHT22;8330;-33.858;151.184;2022-09-06T07:23:51;16.50;99.90
16441;DHT22;8330;-33.858;151.184;2022-09-06T07:26:22;16.50;99.90
16441;DHT22;8330;-33.858;151.184;2022-09-06T07:29:01;16.50;99.90
16441;DHT22;8330;-33.858;151.184;2022-09-06T07:31:32;16.50;99.90
16441;DHT22;8330;-33.858;151.184;2022-09-06T07:34:07;16.50;99.90
16441;DHT22;8330;-33.858;151.184;2022-09-06T07:36:38;16.40;99.90
16441;DHT22;8330;-33.858;151.184;2022-09-06T07:39:14;16.40;99.90
16441;DHT22;8330;-33.858;151.184;2022-09-06T07:41:50;16.40;99.90
16441;DHT22;8330;-33.858;151.184;2022-09-06T07:44:21;16.40;99.90
16441;DHT22;8330;-33.858;151.184;2022-09-06T07:46:55;16.40;99.90
16441;DHT22;8330;-33.858;151.184;2022-09-06T07:49:31;16.30;99.90
16441;DHT22;8330;-33.858;151.184;2022-09-06T07:52:06;16.20;99.90
16441;DHT22;8330;-33.858;151.184;2022-09-06T07:54:44;16.20;99.90
16441;DHT22;8330;-33.858;151.184;2022-09-06T07:57:17;16.20;99.90
16441;DHT22;8330;-33.858;151.184;2022-09-06T07:59:49;16.20;99.90
16441;DHT22;8330;-33.858;151.184;2022-09-06T08:02:21;16.10;99.90
16441;DHT22;8330;-33.858;151.184;2022-09-06T08:04:52;16.10;99.90
16441;DHT22;8330;-33.858;151.184;2022-09-06T08:07:26;16.10;99.90
16441;DHT22;8330;-33.858;151.184;2022-09-06T08:10:00;16.10;99.90
16441;DHT22;8330;-33.858;151.184;2022-09-06T08:12:31;16.00;99.90
16441;DHT22;8330;-33.858;151.184;2022-09-06T08:15:03;16.10;99.90
16441;DHT22;8330;-33.858;151.184;2022-09-06T08:17:36;16.00;99.90
16441;DHT22;8330;-33.858;151.184;2022-09-06T08:20:08;16.00;99.90
16441;DHT22;8330;-33.858;151.184;2022-09-06T08:22:42;16.10;99.90
16441;DHT22;8330;-33.858;151.184;2022-09-06T08:25:21;16.00;99.90
16441;DHT22;8330;-33.858;151.184;2022-09-06T08:27:54;16.00;99.90
16441;DHT22;8330;-33.858;151.184;2022-09-06T08:30:28;16.00;99.90
16441;DHT22;8330;-33.858;151.184;2022-09-06T08:32:58;16.10;99.90
16441;DHT22;8330;-33.858;151.184;2022-09-06T08:35:33;16.10;99.90
16441;DHT22;8330;-33.858;151.184;2022-09-06T08:38:07;16.10;99.90
16441;DHT22;8330;-33.858;151.184;2022-09-06T08:40:49;16.00;99.90
16441;DHT22;8330;-33.858;151.184;2022-09-06T08:43:23;16.00;99.90
16441;DHT22;8330;-33.858;151.184;2022-09-06T08:45:58;16.00;99.90
16441;DHT22;8330;-33.858;151.184;2022-09-06T08:48:30;16.00;99.90
16441;DHT22;8330;-33.858;151.184;2022-09-06T08:51:31;16.00;99.90
16441;DHT22;8330;-33.858;151.184;2022-09-06T08:54:20;16.00;99.90
16441;DHT22;8330;-33.858;151.184;2022-09-06T08:57:18;16.00;99.90
16441;DHT22;8330;-33.858;151.184;2022-09-06T09:00:06;16.00;99.90
16441;DHT22;8330;-33.858;151.184;2022-09-06T09:02:44;16.00;99.90
16441;DHT22;8330;-33.858;151.184;2022-09-06T09:05:23;16.00;99.90
16441;DHT22;8330;-33.858;151.184;2022-09-06T09:08:01;15.90;99.90
16441;DHT22;8330;-33.858;151.184;2022-09-06T09:10:40;15.90;99.90
16441;DHT22;8330;-33.858;151.184;2022-09-06T09:13:23;16.00;99.90
16441;DHT22;8330;-33.858;151.184;2022-09-06T09:15:55;15.90;99.90
16441;DHT22;8330;-33.858;151.184;2022-09-06T09:18:28;15.90;99.90
16441;DHT22;8330;-33.858;151.184;2022-09-06T09:21:01;15.90;99.90
16441;DHT22;8330;-33.858;151.184;2022-09-06T09:23:32;15.90;99.90
16441;DHT22;8330;-33.858;151.184;2022-09-06T09:26:06;15.90;99.90
16441;DHT22;8330;-33.858;151.184;2022-09-06T09:29:02;15.80;99.90
16441;DHT22;8330;-33.858;151.184;2022-09-06T09:31:38;15.80;99.90
16441;DHT22;8330;-33.858;151.184;2022-09-06T09:34:11;15.80;99.90
16441;DHT22;8330;-33.858;151.184;2022-09-06T09:36:46;15.80;99.90
16441;DHT22;8330;-33.858;151.184;2022-09-06T09:39:17;15.80;99.90
16441;DHT22;8330;-33.858;151.184;2022-09-06T09:41:50;15.80;99.90
16441;DHT22;8330;-33.858;151.184;2022-09-06T09:44:23;15.80;99.90
16441;DHT22;8330;-33.858;151.184;2022-09-06T09:46:56;15.80;99.90
16441;DHT22;8330;-33.858;151.184;2022-09-06T09:49:30;15.80;99.90
16441;DHT22;8330;-33.858;151.184;2022-09-06T09:52:08;15.70;99.90
16441;DHT22;8330;-33.858;151.184;2022-09-06T09:54:45;15.70;99.90
16441;DHT22;8330;-33.858;151.184;2022-09-06T09:57:20;15.70;99.90
16441;DHT22;8330;-33.858;151.184;2022-09-06T09:59:54;15.70;99.90
16441;DHT22;8330;-33.858;151.184;2022-09-06T10:02:29;15.70;99.90
16441;DHT22;8330;-33.858;151.184;2022-09-06T10:05:02;15.70;99.90
16441;DHT22;8330;-33.858;151.184;2022-09-06T10:07:42;15.70;99.90
16441;DHT22;8330;-33.858;151.184;2022-09-06T10:10:21;15.70;99.90
16441;DHT22;8330;-33.858;151.184;2022-09-06T10:13:06;15.60;99.90
16441;DHT22;8330;-33.858;151.184;2022-09-06T10:15:40;15.60;99.90
16441;DHT22;8330;-33.858;151.184;2022-09-06T10:18:16;15.70;99.90
16441;DHT22;8330;-33.858;151.184;2022-09-06T10:20:54;15.60;99.90
16441;DHT22;8330;-33.858;151.184;2022-09-06T10:23:33;15.60;99.90
16441;DHT22;8330;-33.858;151.184;2022-09-06T10:26:09;15.60;99.90
16441;DHT22;8330;-33.858;151.184;2022-09-06T10:28:41;15.60;99.90
16441;DHT22;8330;-33.858;151.184;2022-09-06T10:37:40;15.50;99.90
16441;DHT22;8330;-33.858;151.184;2022-09-06T10:40:20;15.50;99.90
16441;DHT22;8330;-33.858;151.184;2022-09-06T10:42:57;15.50;99.90
16441;DHT22;8330;-33.858;151.184;2022-09-06T10:45:40;15.50;99.90
16441;DHT22;8330;-33.858;151.184;2022-09-06T10:48:20;15.50;99.90
16441;DHT22;8330;-33.858;151.184;2022-09-06T10:50:55;15.40;99.90
16441;DHT22;8330;-33.858;151.184;2022-09-06T10:53:37;15.40;99.90
16441;DHT22;8330;-33.858;151.184;2022-09-06T10:56:12;15.40;99.90
16441;DHT22;8330;-33.858;151.184;2022-09-06T10:58:51;15.40;99.90
16441;DHT22;8330;-33.858;151.184;2022-09-06T11:01:29;15.40;99.90
16441;DHT22;8330;-33.858;151.184;2022-09-06T11:04:00;15.40;99.90
16441;DHT22;8330;-33.858;151.184;2022-09-06T11:06:41;15.40;99.90
16441;DHT22;8330;-33.858;151.184;2022-09-06T11:09:25;15.40;99.90
16441;DHT22;8330;-33.858;151.184;2022-09-06T11:12:07;15.40;99.90
16441;DHT22;8330;-33.858;151.184;2022-09-06T11:14:42;15.40;99.90
16441;DHT22;8330;-33.858;151.184;2022-09-06T11:17:20;15.50;99.90
16441;DHT22;8330;-33.858;151.184;2022-09-06T11:20:02;15.50;99.90
16441;DHT22;8330;-33.858;151.184;2022-09-06T11:26:02;15.30;99.90
16441;DHT22;8330;-33.858;151.184;2022-09-06T11:28:37;15.20;99.90
16441;DHT22;8330;-33.858;151.184;2022-09-06T11:31:23;15.20;99.90
16441;DHT22;8330;-33.858;151.184;2022-09-06T11:34:06;15.10;99.90
16441;DHT22;8330;-33.858;151.184;2022-09-06T11:36:43;15.10;99.90
16441;DHT22;8330;-33.858;151.184;2022-09-06T11:39:24;15.00;99.90
16441;DHT22;8330;-33.858;151.184;2022-09-06T11:41:58;15.10;99.90
16441;DHT22;8330;-33.858;151.184;2022-09-06T11:45:14;15.10;99.90
16441;DHT22;8330;-33.858;151.184;2022-09-06T11:47:52;15.10;99.90
16441;DHT22;8330;-33.858;151.184;2022-09-06T11:50:59;15.20;99.90
16441;DHT22;8330;-33.858;151.184;2022-09-06T11:53:34;15.20;99.90
16441;DHT22;8330;-33.858;151.184;2022-09-06T11:56:29;15.10;99.90
16441;DHT22;8330;-33.858;151.184;2022-09-06T11:59:11;15.10;99.90
16441;DHT22;8330;-33.858;151.184;2022-09-06T12:02:01;15.10;99.90
16441;DHT22;8330;-33.858;151.184;2022-09-06T12:05:08;15.10;99.90
16441;DHT22;8330;-33.858;151.184;2022-09-06T12:13:54;15.10;99.90
16441;DHT22;8330;-33.858;151.184;2022-09-06T12:19:44;15.10;99.90
16441;DHT22;8330;-33.858;151.184;2022-09-06T12:25:51;15.20;99.90
16441;DHT22;8330;-33.858;151.184;2022-09-06T12:28:30;15.20;99.90
16441;DHT22;8330;-33.858;151.184;2022-09-06T12:34:32;15.20;99.90
16441;DHT22;8330;-33.858;151.184;2022-09-06T12:37:12;15.20;99.90
16441;DHT22;8330;-33.858;151.184;2022-09-06T12:39:59;15.20;99.90
16441;DHT22;8330;-33.858;151.184;2022-09-06T12:42:33;15.10;99.90
16441;DHT22;8330;-33.858;151.184;2022-09-06T12:45:12;15.20;99.90
16441;DHT22;8330;-33.858;151.184;2022-09-06T12:47:48;15.20;99.90
16441;DHT22;8330;-33.858;151.184;2022-09-06T12:50:25;15.10;99.90
16441;DHT22;8330;-33.858;151.184;2022-09-06T12:52:59;15.10;99.90
16441;DHT22;8330;-33.858;151.184;2022-09-06T12:55:37;15.10;99.90
16441;DHT22;8330;-33.858;151.184;2022-09-06T12:58:13;15.10;99.90
16441;DHT22;8330;-33.858;151.184;2022-09-06T13:00:51;15.10;99.90
16441;DHT22;8330;-33.858;151.184;2022-09-06T13:03:28;15.00;99.90
16441;DHT22;8330;-33.858;151.184;2022-09-06T13:06:05;15.00;99.90
16441;DHT22;8330;-33.858;151.184;2022-09-06T13:08:40;15.00;99.90
16441;DHT22;8330;-33.858;151.184;2022-09-06T13:11:14;14.90;99.90
16441;DHT22;8330;-33.858;151.184;2022-09-06T13:13:47;14.90;99.90
16441;DHT22;8330;-33.858;151.184;2022-09-06T13:16:22;14.80;99.90
16441;DHT22;8330;-33.858;151.184;2022-09-06T13:19:02;14.80;99.90
16441;DHT22;8330;-33.858;151.184;2022-09-06T13:21:43;14.80;99.90
16441;DHT22;8330;-33.858;151.184;2022-09-06T13:24:22;14.80;99.90
16441;DHT22;8330;-33.858;151.184;2022-09-06T13:26:56;14.80;99.90
16441;DHT22;8330;-33.858;151.184;2022-09-06T13:29:31;14.70;99.90
16441;DHT22;8330;-33.858;151.184;2022-09-06T13:32:13;14.70;99.90
16441;DHT22;8330;-33.858;151.184;2022-09-06T13:34:52;14.70;99.90
16441;DHT22;8330;-33.858;151.184;2022-09-06T13:37:34;14.70;99.90
16441;DHT22;8330;-33.858;151.184;2022-09-06T13:40:37;14.70;99.90
16441;DHT22;8330;-33.858;151.184;2022-09-06T13:43:11;14.60;99.90
16441;DHT22;8330;-33.858;151.184;2022-09-06T13:45:42;14.60;99.90
16441;DHT22;8330;-33.858;151.184;2022-09-06T13:48:17;14.70;99.90
16441;DHT22;8330;-33.858;151.184;2022-09-06T13:50:49;14.70;99.90
16441;DHT22;8330;-33.858;151.184;2022-09-06T13:53:22;14.70;99.90
16441;DHT22;8330;-33.858;151.184;2022-09-06T13:55:53;14.70;99.90
16441;DHT22;8330;-33.858;151.184;2022-09-06T13:58:28;14.70;99.90
16441;DHT22;8330;-33.858;151.184;2022-09-06T14:01:00;14.60;99.90
16441;DHT22;8330;-33.858;151.184;2022-09-06T14:03:43;14.60;99.90
16441;DHT22;8330;-33.858;151.184;2022-09-06T14:06:24;14.60;99.90
16441;DHT22;8330;-33.858;151.184;2022-09-06T14:08:58;14.50;99.90
16441;DHT22;8330;-33.858;151.184;2022-09-06T14:11:34;14.50;99.90
16441;DHT22;8330;-33.858;151.184;2022-09-06T14:14:05;14.50;99.90
16441;DHT22;8330;-33.858;151.184;2022-09-06T14:16:36;14.50;99.90
16441;DHT22;8330;-33.858;151.184;2022-09-06T14:19:07;14.50;99.90
16441;DHT22;8330;-33.858;151.184;2022-09-06T14:21:38;14.50;99.90
16441;DHT22;8330;-33.858;151.184;2022-09-06T14:24:12;14.50;99.90
16441;DHT22;8330;-33.858;151.184;2022-09-06T14:26:42;14.50;99.90
16441;DHT22;8330;-33.858;151.184;2022-09-06T14:29:13;14.50;99.90
16441;DHT22;8330;-33.858;151.184;2022-09-06T14:31:44;14.50;99.90
16441;DHT22;8330;-33.858;151.184;2022-09-06T14:34:22;14.50;99.90
16441;DHT22;8330;-33.858;151.184;2022-09-06T14:36:56;14.50;99.90
16441;DHT22;8330;-33.858;151.184;2022-09-06T14:39:28;14.50;99.90
16441;DHT22;8330;-33.858;151.184;2022-09-06T14:42:12;14.50;99.90
16441;DHT22;8330;-33.858;151.184;2022-09-06T14:44:43;14.40;99.90
16441;DHT22;8330;-33.858;151.184;2022-09-06T14:47:14;14.50;99.90
16441;DHT22;8330;-33.858;151.184;2022-09-06T14:49:44;14.40;99.90
16441;DHT22;8330;-33.858;151.184;2022-09-06T14:52:15;14.40;99.90
16441;DHT22;8330;-33.858;151.184;2022-09-06T14:54:48;14.40;99.90
16441;DHT22;8330;-33.858;151.184;2022-09-06T14:57:20;14.40;99.90
16441;DHT22;8330;-33.858;151.184;2022-09-06T14:59:51;14.40;99.90
16441;DHT22;8330;-33.858;151.184;2022-09-06T15:02:23;14.40;99.90
16441;DHT22;8330;-33.858;151.184;2022-09-06T15:04:55;14.30;99.90
16441;DHT22;8330;-33.858;151.184;2022-09-06T15:07:27;14.40;99.90
16441;DHT22;8330;-33.858;151.184;2022-09-06T15:10:03;14.40;99.90
16441;DHT22;8330;-33.858;151.184;2022-09-06T15:12:35;14.30;99.90
16441;DHT22;8330;-33.858;151.184;2022-09-06T15:15:07;14.30;99.90
16441;DHT22;8330;-33.858;151.184;2022-09-06T15:17:40;14.30;99.90
16441;DHT22;8330;-33.858;151.184;2022-09-06T15:20:12;14.20;99.90
16441;DHT22;8330;-33.858;151.184;2022-09-06T15:22:44;14.20;99.90
16441;DHT22;8330;-33.858;151.184;2022-09-06T15:25:18;14.20;99.90
16441;DHT22;8330;-33.858;151.184;2022-09-06T15:27:49;14.20;99.90
16441;DHT22;8330;-33.858;151.184;2022-09-06T15:30:20;14.20;99.90
16441;DHT22;8330;-33.858;151.184;2022-09-06T15:32:51;14.30;99.90
16441;DHT22;8330;-33.858;151.184;2022-09-06T15:35:22;14.20;99.90
16441;DHT22;8330;-33.858;151.184;2022-09-06T15:37:53;14.20;99.90
16441;DHT22;8330;-33.858;151.184;2022-09-06T15:40:27;14.20;99.90
16441;DHT22;8330;-33.858;151.184;2022-09-06T15:43:01;14.10;99.90
16441;DHT22;8330;-33.858;151.184;2022-09-06T15:45:45;14.00;99.90
16441;DHT22;8330;-33.858;151.184;2022-09-06T15:48:17;14.00;99.90
16441;DHT22;8330;-33.858;151.184;2022-09-06T15:50:48;14.00;99.90
16441;DHT22;8330;-33.858;151.184;2022-09-06T15:53:19;13.90;99.90
16441;DHT22;8330;-33.858;151.184;2022-09-06T15:55:57;13.90;99.90
16441;DHT22;8330;-33.858;151.184;2022-09-06T15:58:29;13.80;99.90
16441;DHT22;8330;-33.858;151.184;2022-09-06T16:01:02;13.80;99.90
16441;DHT22;8330;-33.858;151.184;2022-09-06T16:03:37;13.80;99.90
16441;DHT22;8330;-33.858;151.184;2022-09-06T16:06:11;13.80;99.90
16441;DHT22;8330;-33.858;151.184;2022-09-06T16:08:43;13.90;99.90
16441;DHT22;8330;-33.858;151.184;2022-09-06T16:11:18;13.90;99.90
16441;DHT22;8330;-33.858;151.184;2022-09-06T16:13:50;13.90;99.90
16441;DHT22;8330;-33.858;151.184;2022-09-06T16:16:21;13.90;99.90
16441;DHT22;8330;-33.858;151.184;2022-09-06T16:18:57;13.90;99.90
16441;DHT22;8330;-33.858;151.184;2022-09-06T16:21:31;13.90;99.90
16441;DHT22;8330;-33.858;151.184;2022-09-06T16:24:05;13.90;99.90